sensor_id;sensor_type;location;lat;lon;timestamp;temperature;humidity
24636;DHT22;12772;49.794;10.024;2023-01-08T00:01:51;9.00;54.20
24636;DHT22;12772;49.794;10.024;2023-01-08T00:05:53;8.60;53.40
24636;DHT22;12772;49.794;10.024;2023-01-08T00:09:55;9.10;53.90
24636;DHT22;12772;49.794;10.024;2023-01-08T00:13:57;8.90;53.70
24636;DHT22;12772;49.794;10.024;2023-01-08T00:18:00;9.10;53.80
24636;DHT22;12772;49.794;10.024;2023-01-08T00:22:02;9.20;53.80
24636;DHT22;12772;49.794;10.024;2023-01-08T00:26:07;9.30;53.90
24636;DHT22;12772;49.794;10.024;2023-01-08T00:30:10;9.00;53.40
24636;DHT22;12772;49.794;10.024;2023-01-08T00:34:12;9.10;53.20
24636;DHT22;12772;49.794;10.024;2023-01-08T00:38:14;9.30;53.20
24636;DHT22;12772;49.794;10.024;2023-01-08T00:42:16;9.00;52.80
24636;DHT22;12772;49.794;10.024;2023-01-08T00:46:19;9.40;52.90
24636;DHT22;12772;49.794;10.024;2023-01-08T00:50:21;9.50;52.90
24636;DHT22;12772;49.794;10.024;2023-01-08T00:54:23;9.20;52.70
24636;DHT22;12772;49.794;10.024;2023-01-08T00:58:25;9.50;53.10
24636;DHT22;12772;49.794;10.024;2023-01-08T01:02:27;9.10;52.20
24636;DHT22;12772;49.794;10.024;2023-01-08T01:06:29;9.60;52.70
24636;DHT22;12772;49.794;10.024;2023-01-08T01:10:31;9.60;52.70
24636;DHT22;12772;49.794;10.024;2023-01-08T01:14:33;9.60;52.60
24636;DHT22;12772;49.794;10.024;2023-01-08T01:18:35;9.70;52.60
24636;DHT22;12772;49.794;10.024;2023-01-08T01:22:37;9.70;52.40
24636;DHT22;12772;49.794;10.024;2023-01-08T01:26:40;9.40;51.90
24636;DHT22;12772;49.794;10.024;2023-01-08T01:30:42;9.20;51.30
24636;DHT22;12772;49.794;10.024;2023-01-08T01:34:44;9.60;51.60
24636;DHT22;12772;49.794;10.024;2023-01-08T01:38:47;9.50;51.60
24636;DHT22;12772;49.794;10.024;2023-01-08T01:42:49;9.50;51.70
24636;DHT22;12772;49.794;10.024;2023-01-08T01:46:51;9.50;51.70
24636;DHT22;12772;49.794;10.024;2023-01-08T01:50:53;9.50;51.80
24636;DHT22;12772;49.794;10.024;2023-01-08T01:54:56;9.10;51.20
24636;DHT22;12772;49.794;10.024;2023-01-08T01:59:00;9.10;50.70
24636;DHT22;12772;49.794;10.024;2023-01-08T02:03:03;9.10;50.60
24636;DHT22;12772;49.794;10.024;2023-01-08T02:07:15;9.60;51.20
24636;DHT22;12772;49.794;10.024;2023-01-08T02:11:28;9.20;50.80
24636;DHT22;12772;49.794;10.024;2023-01-08T02:16:00;9.60;51.20
24636;DHT22;12772;49.794;10.024;2023-01-08T02:20:26;9.50;50.90
24636;DHT22;12772;49.794;10.024;2023-01-08T02:25:15;9.70;51.00
24636;DHT22;12772;49.794;10.024;2023-01-08T02:28:57;9.70;51.00
24636;DHT22;12772;49.794;10.024;2023-01-08T02:33:00;9.50;50.80
24636;DHT22;12772;49.794;10.024;2023-01-08T02:37:02;9.40;50.00
24636;DHT22;12772;49.794;10.024;2023-01-08T02:41:08;9.20;49.80
24636;DHT22;12772;49.794;10.024;2023-01-08T02:49:18;9.70;50.60
24636;DHT22;12772;49.794;10.024;2023-01-08T02:53:37;9.70;50.80
24636;DHT22;12772;49.794;10.024;2023-01-08T02:57:41;9.80;50.60
24636;DHT22;12772;49.794;10.024;2023-01-08T03:01:43;10.00;49.80
24636;DHT22;12772;49.794;10.024;2023-01-08T03:05:49;9.90;50.90
24636;DHT22;12772;49.794;10.024;2023-01-08T03:09:52;9.80;50.30
24636;DHT22;12772;49.794;10.024;2023-01-08T03:18:09;9.80;50.40
24636;DHT22;12772;49.794;10.024;2023-01-08T03:22:14;9.80;50.10
24636;DHT22;12772;49.794;10.024;2023-01-08T03:26:20;9.50;50.30
24636;DHT22;12772;49.794;10.024;2023-01-08T03:30:24;9.70;49.70
24636;DHT22;12772;49.794;10.024;2023-01-08T03:34:27;9.90;50.20
24636;DHT22;12772;49.794;10.024;2023-01-08T03:38:36;9.80;49.90
24636;DHT22;12772;49.794;10.024;2023-01-08T03:42:41;9.90;50.10
24636;DHT22;12772;49.794;10.024;2023-01-08T03:46:51;10.10;49.10
24636;DHT22;12772;49.794;10.024;2023-01-08T03:50:53;9.60;49.80
24636;DHT22;12772;49.794;10.024;2023-01-08T03:54:55;10.10;49.30
24636;DHT22;12772;49.794;10.024;2023-01-08T03:58:57;9.60;49.90
24636;DHT22;12772;49.794;10.024;2023-01-08T04:02:59;10.00;49.00
24636;DHT22;12772;49.794;10.024;2023-01-08T04:07:01;10.20;49.30
24636;DHT22;12772;49.794;10.024;2023-01-08T04:11:03;9.90;51.20
24636;DHT22;12772;49.794;10.024;2023-01-08T04:15:06;10.00;49.60
24636;DHT22;12772;49.794;10.024;2023-01-08T04:19:12;10.20;49.80
24636;DHT22;12772;49.794;10.024;2023-01-08T04:23:14;10.00;49.60
24636;DHT22;12772;49.794;10.024;2023-01-08T04:27:16;9.50;50.40
24636;DHT22;12772;49.794;10.024;2023-01-08T04:31:18;9.70;50.70
24636;DHT22;12772;49.794;10.024;2023-01-08T04:35:20;10.00;49.60
24636;DHT22;12772;49.794;10.024;2023-01-08T04:39:23;9.60;50.60
24636;DHT22;12772;49.794;10.024;2023-01-08T04:43:25;9.70;50.80
24636;DHT22;12772;49.794;10.024;2023-01-08T04:47:27;9.70;50.60
24636;DHT22;12772;49.794;10.024;2023-01-08T04:51:29;9.70;50.70
24636;DHT22;12772;49.794;10.024;2023-01-08T04:55:32;9.70;50.90
24636;DHT22;12772;49.794;10.024;2023-01-08T04:59:34;9.50;50.70
24636;DHT22;12772;49.794;10.024;2023-01-08T05:03:36;10.00;50.10
24636;DHT22;12772;49.794;10.024;2023-01-08T05:07:39;9.50;50.80
24636;DHT22;12772;49.794;10.024;2023-01-08T05:11:41;9.90;51.00
24636;DHT22;12772;49.794;10.024;2023-01-08T05:15:43;9.70;50.80
24636;DHT22;12772;49.794;10.024;2023-01-08T05:19:45;9.90;51.00
24636;DHT22;12772;49.794;10.024;2023-01-08T05:23:47;10.10;50.20
24636;DHT22;12772;49.794;10.024;2023-01-08T05:27:49;9.60;50.70
24636;DHT22;12772;49.794;10.024;2023-01-08T05:31:51;10.20;50.20
24636;DHT22;12772;49.794;10.024;2023-01-08T05:35:53;9.80;50.90
24636;DHT22;12772;49.794;10.024;2023-01-08T05:39:56;10.10;49.80
24636;DHT22;12772;49.794;10.024;2023-01-08T05:43:59;9.80;50.30
24636;DHT22;12772;49.794;10.024;2023-01-08T05:48:04;9.70;50.10
24636;DHT22;12772;49.794;10.024;2023-01-08T05:52:07;10.10;49.00
24636;DHT22;12772;49.794;10.024;2023-01-08T05:56:11;9.90;50.10
24636;DHT22;12772;49.794;10.024;2023-01-08T06:00:13;9.80;50.10
24636;DHT22;12772;49.794;10.024;2023-01-08T06:04:15;9.80;50.20
24636;DHT22;12772;49.794;10.024;2023-01-08T06:08:17;9.60;50.10
24636;DHT22;12772;49.794;10.024;2023-01-08T06:12:20;9.70;50.30
24636;DHT22;12772;49.794;10.024;2023-01-08T06:16:22;10.10;49.70
24636;DHT22;12772;49.794;10.024;2023-01-08T06:20:24;9.60;50.80
24636;DHT22;12772;49.794;10.024;2023-01-08T06:24:26;10.00;50.30
24636;DHT22;12772;49.794;10.024;2023-01-08T06:28:28;9.60;51.20
24636;DHT22;12772;49.794;10.024;2023-01-08T06:32:29;9.70;51.50
24636;DHT22;12772;49.794;10.024;2023-01-08T06:36:32;10.00;50.80
24636;DHT22;12772;49.794;10.024;2023-01-08T06:40:34;9.70;51.70
24636;DHT22;12772;49.794;10.024;2023-01-08T06:44:36;9.60;51.60
24636;DHT22;12772;49.794;10.024;2023-01-08T06:48:38;10.00;50.90
24636;DHT22;12772;49.794;10.024;2023-01-08T06:52:40;9.60;51.70
24636;DHT22;12772;49.794;10.024;2023-01-08T06:56:42;10.00;51.00
24636;DHT22;12772;49.794;10.024;2023-01-08T07:00:44;9.50;51.60
24636;DHT22;12772;49.794;10.024;2023-01-08T07:04:46;9.50;51.80
24636;DHT22;12772;49.794;10.024;2023-01-08T07:08:48;9.90;52.20
24636;DHT22;12772;49.794;10.024;2023-01-08T07:12:50;10.00;51.20
24636;DHT22;12772;49.794;10.024;2023-01-08T07:16:52;9.90;52.50
24636;DHT22;12772;49.794;10.024;2023-01-08T07:20:54;9.60;51.90
24636;DHT22;12772;49.794;10.024;2023-01-08T07:24:56;9.50;51.80
24636;DHT22;12772;49.794;10.024;2023-01-08T07:28:58;9.60;51.70
24636;DHT22;12772;49.794;10.024;2023-01-08T07:33:00;9.90;52.30
24636;DHT22;12772;49.794;10.024;2023-01-08T07:37:03;9.70;52.20
24636;DHT22;12772;49.794;10.024;2023-01-08T07:41:05;9.70;52.00
24636;DHT22;12772;49.794;10.024;2023-01-08T07:45:07;9.80;52.30
24636;DHT22;12772;49.794;10.024;2023-01-08T07:49:09;10.20;51.60
24636;DHT22;12772;49.794;10.024;2023-01-08T07:53:12;9.60;52.10
24636;DHT22;12772;49.794;10.024;2023-01-08T07:57:16;9.80;52.00
24636;DHT22;12772;49.794;10.024;2023-01-08T08:01:18;10.10;51.00
24636;DHT22;12772;49.794;10.024;2023-01-08T08:05:21;10.00;50.90
24636;DHT22;12772;49.794;10.024;2023-01-08T08:09:23;9.70;51.90
24636;DHT22;12772;49.794;10.024;2023-01-08T08:13:25;10.20;51.00
24636;DHT22;12772;49.794;10.024;2023-01-08T08:17:27;10.00;51.50
24636;DHT22;12772;49.794;10.024;2023-01-08T08:21:29;10.30;51.30
24636;DHT22;12772;49.794;10.024;2023-01-08T08:25:31;10.30;51.40
24636;DHT22;12772;49.794;10.024;2023-01-08T08:29:33;9.90;52.50
24636;DHT22;12772;49.794;10.024;2023-01-08T08:33:35;10.10;51.90
24636;DHT22;12772;49.794;10.024;2023-01-08T08:37:37;10.20;52.40
24636;DHT22;12772;49.794;10.024;2023-01-08T08:41:40;10.30;53.70
24636;DHT22;12772;49.794;10.024;2023-01-08T08:45:42;9.70;54.10
24636;DHT22;12772;49.794;10.024;2023-01-08T08:49:44;10.20;53.70
24636;DHT22;12772;49.794;10.024;2023-01-08T08:53:46;9.90;55.20
24636;DHT22;12772;49.794;10.024;2023-01-08T08:57:48;9.80;56.40
24636;DHT22;12772;49.794;10.024;2023-01-08T09:01:50;10.50;56.70
24636;DHT22;12772;49.794;10.024;2023-01-08T09:05:53;10.20;56.50
24636;DHT22;12772;49.794;10.024;2023-01-08T09:09:55;10.20;57.20
24636;DHT22;12772;49.794;10.024;2023-01-08T09:13:57;10.20;57.30
24636;DHT22;12772;49.794;10.024;2023-01-08T09:17:59;10.20;57.20
24636;DHT22;12772;49.794;10.024;2023-01-08T09:22:01;10.20;57.20
24636;DHT22;12772;49.794;10.024;2023-01-08T09:26:04;10.40;58.10
24636;DHT22;12772;49.794;10.024;2023-01-08T09:30:07;10.40;58.50
24636;DHT22;12772;49.794;10.024;2023-01-08T09:34:09;10.20;58.80
24636;DHT22;12772;49.794;10.024;2023-01-08T09:38:11;10.20;59.10
24636;DHT22;12772;49.794;10.024;2023-01-08T09:42:14;9.90;60.20
24636;DHT22;12772;49.794;10.024;2023-01-08T09:46:18;9.90;60.70
24636;DHT22;12772;49.794;10.024;2023-01-08T09:50:23;9.80;61.00
24636;DHT22;12772;49.794;10.024;2023-01-08T09:54:27;10.30;60.90
24636;DHT22;12772;49.794;10.024;2023-01-08T09:58:45;10.00;61.10
24636;DHT22;12772;49.794;10.024;2023-01-08T10:02:51;10.50;61.70
24636;DHT22;12772;49.794;10.024;2023-01-08T10:07:09;10.30;61.90
24636;DHT22;12772;49.794;10.024;2023-01-08T10:11:13;10.40;62.20
24636;DHT22;12772;49.794;10.024;2023-01-08T10:15:18;10.50;62.40
24636;DHT22;12772;49.794;10.024;2023-01-08T10:19:21;10.10;62.20
24636;DHT22;12772;49.794;10.024;2023-01-08T10:23:23;10.50;62.40
24636;DHT22;12772;49.794;10.024;2023-01-08T10:27:26;10.20;62.10
24636;DHT22;12772;49.794;10.024;2023-01-08T10:31:28;10.60;62.30
24636;DHT22;12772;49.794;10.024;2023-01-08T10:35:39;10.40;62.20
24636;DHT22;12772;49.794;10.024;2023-01-08T10:39:45;10.60;62.30
24636;DHT22;12772;49.794;10.024;2023-01-08T10:43:50;10.70;62.40
24636;DHT22;12772;49.794;10.024;2023-01-08T10:47:59;10.70;62.90
24636;DHT22;12772;49.794;10.024;2023-01-08T10:52:02;10.70;62.50
24636;DHT22;12772;49.794;10.024;2023-01-08T10:56:05;10.70;62.60
24636;DHT22;12772;49.794;10.024;2023-01-08T11:00:25;10.60;62.80
24636;DHT22;12772;49.794;10.024;2023-01-08T11:04:31;10.70;62.70
24636;DHT22;12772;49.794;10.024;2023-01-08T11:08:35;10.70;62.90
24636;DHT22;12772;49.794;10.024;2023-01-08T11:12:39;10.70;62.90
24636;DHT22;12772;49.794;10.024;2023-01-08T11:16:41;10.30;62.60
24636;DHT22;12772;49.794;10.024;2023-01-08T11:20:44;10.40;62.60
24636;DHT22;12772;49.794;10.024;2023-01-08T11:24:48;10.50;62.70
24636;DHT22;12772;49.794;10.024;2023-01-08T11:29:16;10.80;63.00
24636;DHT22;12772;49.794;10.024;2023-01-08T11:33:26;10.60;62.80
24636;DHT22;12772;49.794;10.024;2023-01-08T11:37:33;10.80;63.10
24636;DHT22;12772;49.794;10.024;2023-01-08T11:42:17;10.70;63.00
24636;DHT22;12772;49.794;10.024;2023-01-08T11:50:43;10.50;63.00
24636;DHT22;12772;49.794;10.024;2023-01-08T12:04:22;10.60;63.40
24636;DHT22;12772;49.794;10.024;2023-01-08T12:21:31;10.80;63.90
24636;DHT22;12772;49.794;10.024;2023-01-08T12:35:14;11.00;64.00
24636;DHT22;12772;49.794;10.024;2023-01-08T12:39:27;10.90;63.40
24636;DHT22;12772;49.794;10.024;2023-01-08T12:43:31;11.10;63.50
24636;DHT22;12772;49.794;10.024;2023-01-08T12:47:36;10.70;62.90
24636;DHT22;12772;49.794;10.024;2023-01-08T12:52:07;11.30;63.30
24636;DHT22;12772;49.794;10.024;2023-01-08T13:00:36;11.40;62.20
24636;DHT22;12772;49.794;10.024;2023-01-08T13:04:43;11.50;61.90
24636;DHT22;12772;49.794;10.024;2023-01-08T13:08:54;11.50;61.80
24636;DHT22;12772;49.794;10.024;2023-01-08T13:12:58;11.50;61.60
24636;DHT22;12772;49.794;10.024;2023-01-08T13:17:05;11.30;61.10
24636;DHT22;12772;49.794;10.024;2023-01-08T13:21:10;11.10;61.00
24636;DHT22;12772;49.794;10.024;2023-01-08T13:29:39;11.50;61.00
24636;DHT22;12772;49.794;10.024;2023-01-08T13:33:41;11.50;60.60
24636;DHT22;12772;49.794;10.024;2023-01-08T13:37:46;11.60;60.70
24636;DHT22;12772;49.794;10.024;2023-01-08T13:46:18;11.70;60.80
24636;DHT22;12772;49.794;10.024;2023-01-08T13:50:22;11.60;60.60
24636;DHT22;12772;49.794;10.024;2023-01-08T13:54:32;11.20;60.00
24636;DHT22;12772;49.794;10.024;2023-01-08T13:58:45;11.20;60.00
24636;DHT22;12772;49.794;10.024;2023-01-08T14:02:52;11.60;61.00
24636;DHT22;12772;49.794;10.024;2023-01-08T14:07:12;11.60;60.40
24636;DHT22;12772;49.794;10.024;2023-01-08T14:11:15;11.50;59.90
24636;DHT22;12772;49.794;10.024;2023-01-08T14:15:26;11.40;60.10
24636;DHT22;12772;49.794;10.024;2023-01-08T14:19:30;11.60;60.20
24636;DHT22;12772;49.794;10.024;2023-01-08T14:23:37;11.60;60.10
24636;DHT22;12772;49.794;10.024;2023-01-08T14:27:40;11.70;60.00
24636;DHT22;12772;49.794;10.024;2023-01-08T14:31:48;11.70;60.00
24636;DHT22;12772;49.794;10.024;2023-01-08T14:35:51;11.40;59.30
24636;DHT22;12772;49.794;10.024;2023-01-08T14:39:54;11.60;59.60
24636;DHT22;12772;49.794;10.024;2023-01-08T14:43:56;11.30;59.40
24636;DHT22;12772;49.794;10.024;2023-01-08T14:48:06;11.60;59.70
24636;DHT22;12772;49.794;10.024;2023-01-08T14:52:11;11.40;59.20
24636;DHT22;12772;49.794;10.024;2023-01-08T14:56:21;11.60;59.50
24636;DHT22;12772;49.794;10.024;2023-01-08T15:00:28;11.60;59.40
24636;DHT22;12772;49.794;10.024;2023-01-08T15:04:31;11.50;59.10
24636;DHT22;12772;49.794;10.024;2023-01-08T15:08:37;11.70;58.90
24636;DHT22;12772;49.794;10.024;2023-01-08T15:12:39;11.70;58.90
24636;DHT22;12772;49.794;10.024;2023-01-08T15:16:41;11.70;58.90
24636;DHT22;12772;49.794;10.024;2023-01-08T15:20:44;11.70;58.90
24636;DHT22;12772;49.794;10.024;2023-01-08T15:24:56;11.80;59.00
24636;DHT22;12772;49.794;10.024;2023-01-08T15:29:01;11.50;58.60
24636;DHT22;12772;49.794;10.024;2023-01-08T15:33:13;11.70;58.90
24636;DHT22;12772;49.794;10.024;2023-01-08T15:37:17;11.70;58.90
24636;DHT22;12772;49.794;10.024;2023-01-08T15:41:21;11.30;58.40
24636;DHT22;12772;49.794;10.024;2023-01-08T15:45:48;11.60;58.80
24636;DHT22;12772;49.794;10.024;2023-01-08T15:49:50;11.10;58.20
24636;DHT22;12772;49.794;10.024;2023-01-08T15:53:54;11.40;58.50
24636;DHT22;12772;49.794;10.024;2023-01-08T15:57:56;11.10;58.20
24636;DHT22;12772;49.794;10.024;2023-01-08T16:01:58;11.10;58.20
24636;DHT22;12772;49.794;10.024;2023-01-08T16:06:05;11.40;58.60
24636;DHT22;12772;49.794;10.024;2023-01-08T16:10:07;11.60;58.80
24636;DHT22;12772;49.794;10.024;2023-01-08T16:14:10;11.30;58.40
24636;DHT22;12772;49.794;10.024;2023-01-08T16:18:12;11.00;58.10
24636;DHT22;12772;49.794;10.024;2023-01-08T16:22:14;11.30;58.50
24636;DHT22;12772;49.794;10.024;2023-01-08T16:26:16;11.30;58.40
24636;DHT22;12772;49.794;10.024;2023-01-08T16:30:18;10.80;57.90
24636;DHT22;12772;49.794;10.024;2023-01-08T16:34:20;11.10;58.20
24636;DHT22;12772;49.794;10.024;2023-01-08T16:38:23;10.80;57.90
24636;DHT22;12772;49.794;10.024;2023-01-08T16:42:25;11.10;58.20
24636;DHT22;12772;49.794;10.024;2023-01-08T16:46:27;11.30;58.40
24636;DHT22;12772;49.794;10.024;2023-01-08T16:50:31;10.80;57.90
24636;DHT22;12772;49.794;10.024;2023-01-08T16:54:33;10.90;58.00
24636;DHT22;12772;49.794;10.024;2023-01-08T16:58:35;11.00;58.10
24636;DHT22;12772;49.794;10.024;2023-01-08T17:02:37;10.90;58.00
24636;DHT22;12772;49.794;10.024;2023-01-08T17:06:39;10.90;58.00
24636;DHT22;12772;49.794;10.024;2023-01-08T17:10:42;11.00;58.10
24636;DHT22;12772;49.794;10.024;2023-01-08T17:14:45;10.80;57.90
24636;DHT22;12772;49.794;10.024;2023-01-08T17:18:47;11.20;58.30
24636;DHT22;12772;49.794;10.024;2023-01-08T17:22:49;11.20;58.20
24636;DHT22;12772;49.794;10.024;2023-01-08T17:26:51;11.00;58.00
24636;DHT22;12772;49.794;10.024;2023-01-08T17:31:00;10.70;57.40
24636;DHT22;12772;49.794;10.024;2023-01-08T17:35:03;10.90;57.30
24636;DHT22;12772;49.794;10.024;2023-01-08T17:39:06;11.20;57.70
24636;DHT22;12772;49.794;10.024;2023-01-08T17:43:08;11.20;57.30
24636;DHT22;12772;49.794;10.024;2023-01-08T17:47:10;10.80;56.80
24636;DHT22;12772;49.794;10.024;2023-01-08T17:51:12;11.20;57.10
24636;DHT22;12772;49.794;10.024;2023-01-08T17:55:14;10.80;56.50
24636;DHT22;12772;49.794;10.024;2023-01-08T17:59:17;11.20;56.90
24636;DHT22;12772;49.794;10.024;2023-01-08T18:03:20;11.20;56.70
24636;DHT22;12772;49.794;10.024;2023-01-08T18:07:22;11.20;56.60
24636;DHT22;12772;49.794;10.024;2023-01-08T18:11:24;10.80;56.10
24636;DHT22;12772;49.794;10.024;2023-01-08T18:15:26;11.20;56.20
24636;DHT22;12772;49.794;10.024;2023-01-08T18:19:28;11.10;55.90
24636;DHT22;12772;49.794;10.024;2023-01-08T18:23:30;10.70;55.60
24636;DHT22;12772;49.794;10.024;2023-01-08T18:27:33;11.10;56.10
24636;DHT22;12772;49.794;10.024;2023-01-08T18:31:35;11.10;56.00
24636;DHT22;12772;49.794;10.024;2023-01-08T18:35:37;10.70;55.60
24636;DHT22;12772;49.794;10.024;2023-01-08T18:39:39;11.10;56.00
24636;DHT22;12772;49.794;10.024;2023-01-08T18:43:41;11.10;56.00
24636;DHT22;12772;49.794;10.024;2023-01-08T18:47:43;10.90;55.90
24636;DHT22;12772;49.794;10.024;2023-01-08T18:51:45;10.80;56.00
24636;DHT22;12772;49.794;10.024;2023-01-08T18:55:47;11.00;56.50
24636;DHT22;12772;49.794;10.024;2023-01-08T18:59:49;11.00;56.50
24636;DHT22;12772;49.794;10.024;2023-01-08T19:03:52;10.90;56.60
24636;DHT22;12772;49.794;10.024;2023-01-08T19:07:55;10.90;56.60
24636;DHT22;12772;49.794;10.024;2023-01-08T19:11:57;10.60;56.40
24636;DHT22;12772;49.794;10.024;2023-01-08T19:16:06;10.80;56.60
24636;DHT22;12772;49.794;10.024;2023-01-08T19:20:09;10.90;56.80
24636;DHT22;12772;49.794;10.024;2023-01-08T19:24:11;10.50;56.50
24636;DHT22;12772;49.794;10.024;2023-01-08T19:28:13;10.50;56.40
24636;DHT22;12772;49.794;10.024;2023-01-08T19:32:15;10.90;56.70
24636;DHT22;12772;49.794;10.024;2023-01-08T19:36:17;11.00;56.80
24636;DHT22;12772;49.794;10.024;2023-01-08T19:40:20;10.80;56.70
24636;DHT22;12772;49.794;10.024;2023-01-08T19:44:22;10.50;56.40
24636;DHT22;12772;49.794;10.024;2023-01-08T19:48:24;10.70;56.80
24636;DHT22;12772;49.794;10.024;2023-01-08T19:52:26;10.80;57.10
24636;DHT22;12772;49.794;10.024;2023-01-08T19:56:29;10.80;57.10
24636;DHT22;12772;49.794;10.024;2023-01-08T20:00:31;10.80;57.20
24636;DHT22;12772;49.794;10.024;2023-01-08T20:04:36;10.60;56.90
24636;DHT22;12772;49.794;10.024;2023-01-08T20:08:40;10.50;56.80
24636;DHT22;12772;49.794;10.024;2023-01-08T20:12:42;10.80;57.10
24636;DHT22;12772;49.794;10.024;2023-01-08T20:16:44;10.80;57.30
24636;DHT22;12772;49.794;10.024;2023-01-08T20:20:46;10.40;56.90
24636;DHT22;12772;49.794;10.024;2023-01-08T20:24:48;10.40;57.00
24636;DHT22;12772;49.794;10.024;2023-01-08T20:28:52;10.50;57.40
24636;DHT22;12772;49.794;10.024;2023-01-08T20:32:54;10.80;57.90
24636;DHT22;12772;49.794;10.024;2023-01-08T20:36:56;10.70;57.70
24636;DHT22;12772;49.794;10.024;2023-01-08T20:40:58;10.30;57.30
24636;DHT22;12772;49.794;10.024;2023-01-08T20:45:00;10.70;57.70
24636;DHT22;12772;49.794;10.024;2023-01-08T20:49:05;10.60;57.60
24636;DHT22;12772;49.794;10.024;2023-01-08T20:53:08;10.60;57.70
24636;DHT22;12772;49.794;10.024;2023-01-08T20:57:10;10.60;57.60
24636;DHT22;12772;49.794;10.024;2023-01-08T21:01:18;10.50;57.60
24636;DHT22;12772;49.794;10.024;2023-01-08T21:05:20;10.10;57.10
24636;DHT22;12772;49.794;10.024;2023-01-08T21:09:22;10.50;57.50
24636;DHT22;12772;49.794;10.024;2023-01-08T21:13:24;10.10;57.10
24636;DHT22;12772;49.794;10.024;2023-01-08T21:17:26;10.50;57.60
24636;DHT22;12772;49.794;10.024;2023-01-08T21:21:33;10.40;57.40
24636;DHT22;12772;49.794;10.024;2023-01-08T21:25:36;10.40;57.40
24636;DHT22;12772;49.794;10.024;2023-01-08T21:29:38;10.40;57.40
24636;DHT22;12772;49.794;10.024;2023-01-08T21:33:40;10.40;57.40
24636;DHT22;12772;49.794;10.024;2023-01-08T21:37:42;10.10;57.10
24636;DHT22;12772;49.794;10.024;2023-01-08T21:41:44;10.10;57.50
24636;DHT22;12772;49.794;10.024;2023-01-08T21:46:04;9.90;58.60
24636;DHT22;12772;49.794;10.024;2023-01-08T21:50:07;10.50;58.10
24636;DHT22;12772;49.794;10.024;2023-01-08T21:54:09;10.30;58.00
24636;DHT22;12772;49.794;10.024;2023-01-08T21:58:11;10.30;57.60
24636;DHT22;12772;49.794;10.024;2023-01-08T22:02:14;10.50;58.10
24636;DHT22;12772;49.794;10.024;2023-01-08T22:06:17;10.10;57.80
24636;DHT22;12772;49.794;10.024;2023-01-08T22:10:19;10.30;58.00
24636;DHT22;12772;49.794;10.024;2023-01-08T22:14:21;10.20;58.00
24636;DHT22;12772;49.794;10.024;2023-01-08T22:18:23;10.30;58.20
24636;DHT22;12772;49.794;10.024;2023-01-08T22:22:25;10.10;57.90
24636;DHT22;12772;49.794;10.024;2023-01-08T22:26:27;10.30;58.40
24636;DHT22;12772;49.794;10.024;2023-01-08T22:30:29;10.40;58.50
24636;DHT22;12772;49.794;10.024;2023-01-08T22:34:33;9.90;59.30
24636;DHT22;12772;49.794;10.024;2023-01-08T22:38:35;10.30;58.80
24636;DHT22;12772;49.794;10.024;2023-01-08T22:42:38;10.10;58.60
24636;DHT22;12772;49.794;10.024;2023-01-08T22:46:40;10.10;58.60
24636;DHT22;12772;49.794;10.024;2023-01-08T22:50:43;10.40;59.10
24636;DHT22;12772;49.794;10.024;2023-01-08T22:54:45;10.40;59.20
24636;DHT22;12772;49.794;10.024;2023-01-08T22:58:47;10.40;59.20
24636;DHT22;12772;49.794;10.024;2023-01-08T23:02:49;10.00;59.00
24636;DHT22;12772;49.794;10.024;2023-01-08T23:06:51;10.00;59.30
24636;DHT22;12772;49.794;10.024;2023-01-08T23:10:53;10.30;59.90
24636;DHT22;12772;49.794;10.024;2023-01-08T23:14:57;10.30;60.10
24636;DHT22;12772;49.794;10.024;2023-01-08T23:18:59;10.30;60.20
24636;DHT22;12772;49.794;10.024;2023-01-08T23:23:01;9.80;61.00
24636;DHT22;12772;49.794;10.024;2023-01-08T23:27:03;10.30;60.90
24636;DHT22;12772;49.794;10.024;2023-01-08T23:31:07;10.10;61.10
24636;DHT22;12772;49.794;10.024;2023-01-08T23:35:09;10.30;61.40
24636;DHT22;12772;49.794;10.024;2023-01-08T23:39:11;9.80;62.20
24636;DHT22;12772;49.794;10.024;2023-01-08T23:43:13;9.80;62.50
24636;DHT22;12772;49.794;10.024;2023-01-08T23:47:15;9.70;62.60
24636;DHT22;12772;49.794;10.024;2023-01-08T23:51:17;9.70;63.00
24636;DHT22;12772;49.794;10.024;2023-01-08T23:55:20;10.20;62.50
24636;DHT22;12772;49.794;10.024;2023-01-08T23:59:22;10.20;62.70
